Available data for KLBE from the past 2 hours
LATROBE/WESTMORL, PA
Metar
KLBE 140815Z AUTO 00000KT 10SM CLR M04/M06 A3020 RMK AO2

08:15 UTC

Wind: 0° 0kt

Visibility: 10 SM

Sky:

Temp: -4 deg C / 24.8 deg F

Dewpoint: -6 deg C / 21.2 deg F

Pressure: 30.2 inHg

TAF
KLBE 140520Z 1406/1506 16005KT P6SM OVC120 FM141800 23010G18KT P6SM SCT120 FM142300 23005KT P6SM SCT250